Time;durP1;ratioP1;P1;durP2;ratioP2;P2;SDS_P1;SDS_P2;PMS_P1;PMS_P2;Temp;Humidity;BMP_temperature;BMP_pressure;BME280_temperature;BME280_humidity;BME280_pressure;Samples;Min_cycle;Max_cycle;Signal;HPM_P1;HPM_P2
2021/09/01 00:02:16;;;;;;;22.08;14.90;;;;;;;;;;5094010;28;20032;-66
2021/09/01 00:04:42;;;;;;;26.58;16.25;;;;;;;;;;5075455;28;20119;-66
2021/09/01 00:07:08;;;;;;;25.58;15.30;;;;;;;;;;5075851;28;20023;-66
2021/09/01 00:09:37;;;;;;;23.92;15.98;;;;;;;;;;5075499;28;20372;-67
2021/09/01 00:12:03;;;;;;;23.73;16.10;;;;;;;;;;5094154;28;20020;-65
2021/09/01 00:14:29;;;;;;;22.35;15.75;;;;;;;;;;5093554;28;20028;-66
2021/09/01 00:16:55;;;;;;;22.63;15.60;;;;;;;;;;5093328;28;20087;-66
2021/09/01 00:19:21;;;;;;;25.83;15.88;;;;;;;;;;5075398;28;20111;-66
2021/09/01 00:21:47;;;;;;;22.85;15.05;;;;;;;;;;5075349;28;20024;-66
2021/09/01 00:24:13;;;;;;;23.48;15.48;;;;;;;;;;5093307;28;20028;-66
2021/09/01 00:26:39;;;;;;;28.60;15.77;;;;;;;;;;5075140;28;20016;-64
2021/09/01 00:29:05;;;;;;;24.75;16.50;;;;;;;;;;5075229;28;20101;-65
2021/09/01 00:31:31;;;;;;;26.52;16.10;;;;;;;;;;5075111;28;20028;-66
2021/09/01 00:33:57;;;;;;;24.65;16.48;;;;;;;;;;5074736;28;20035;-65
2021/09/01 00:36:23;;;;;;;23.45;17.35;;;;;;;;;;5075057;28;20413;-65
2021/09/01 00:38:49;;;;;;;22.92;16.40;;;;;;;;;;5074699;28;20107;-66
2021/09/01 00:41:22;;;;;;;21.85;16.08;;;;;;;;;;5075037;28;20189;-65
2021/09/01 00:43:49;;;;;;;29.13;16.70;;;;;;;;;;5074943;28;20425;-65
2021/09/01 00:46:15;;;;;;;27.13;15.82;;;;;;;;;;5093048;28;20021;-66
2021/09/01 00:48:41;;;;;;;23.27;16.10;;;;;;;;;;5092880;28;20031;-65
2021/09/01 00:51:07;;;;;;;25.00;16.73;;;;;;;;;;5092845;28;20016;-65
2021/09/01 00:53:34;;;;;;;24.42;16.02;;;;;;;;;;5092405;28;20046;-66
2021/09/01 00:56:01;;;;;;;23.42;16.02;;;;;;;;;;5092795;28;20459;-66
2021/09/01 00:58:34;;;;;;;22.02;16.13;;;;;;;;;;5092522;28;20060;-66
2021/09/01 01:01:15;;;;;;;28.90;16.05;;;;;;;;;;5092808;28;20085;-66
2021/09/01 01:04:01;;;;;;;22.65;15.98;;;;;;;;;;5092455;28;20069;-65
2021/09/01 01:06:29;;;;;;;30.42;16.38;;;;;;;;;;5092527;28;20028;-65
2021/09/01 01:08:55;;;;;;;24.27;15.43;;;;;;;;;;5092555;28;20031;-65
2021/09/01 01:11:21;;;;;;;23.10;15.52;;;;;;;;;;5092508;28;20024;-66
2021/09/01 01:13:48;;;;;;;24.33;15.75;;;;;;;;;;5092333;28;20058;-66
2021/09/01 01:16:14;;;;;;;27.25;16.08;;;;;;;;;;5092388;28;20031;-65
2021/09/01 01:18:46;;;;;;;24.00;14.90;;;;;;;;;;5074174;28;20458;-65
2021/09/01 01:21:14;;;;;;;26.13;16.00;;;;;;;;;;5074158;28;20020;-66
2021/09/01 01:23:40;;;;;;;24.20;14.63;;;;;;;;;;5073939;28;20536;-65
2021/09/01 01:26:07;;;;;;;23.27;15.73;;;;;;;;;;5092482;28;20107;-66
2021/09/01 01:28:33;;;;;;;26.17;17.73;;;;;;;;;;5091586;28;20020;-65
2021/09/01 01:30:59;;;;;;;26.30;15.45;;;;;;;;;;5092264;28;20030;-66
2021/09/01 01:33:25;;;;;;;24.33;16.05;;;;;;;;;;5074158;28;20111;-66
2021/09/01 01:35:51;;;;;;;24.42;15.98;;;;;;;;;;5092261;28;20063;-65
2021/09/01 01:38:19;;;;;;;26.30;15.95;;;;;;;;;;5074026;28;20051;-66
2021/09/01 01:40:46;;;;;;;23.05;15.50;;;;;;;;;;5074270;28;20020;-66
2021/09/01 01:43:12;;;;;;;23.95;15.65;;;;;;;;;;5091889;28;20020;-66
2021/09/01 01:45:39;;;;;;;23.42;16.25;;;;;;;;;;5073746;28;20028;-65
2021/09/01 01:48:06;;;;;;;26.23;14.48;;;;;;;;;;5092156;28;20028;-65
2021/09/01 01:50:33;;;;;;;24.35;15.88;;;;;;;;;;5092075;28;20434;-66
2021/09/01 01:52:59;;;;;;;22.38;14.70;;;;;;;;;;5091880;28;20028;-65
2021/09/01 01:55:25;;;;;;;24.55;15.20;;;;;;;;;;5073556;28;20028;-67
2021/09/01 01:57:51;;;;;;;24.92;14.70;;;;;;;;;;5073698;28;20124;-65
2021/09/01 02:00:17;;;;;;;26.67;16.05;;;;;;;;;;5074069;28;20028;-66
2021/09/01 02:02:43;;;;;;;22.02;15.38;;;;;;;;;;5074127;28;20020;-66
2021/09/01 02:05:10;;;;;;;31.00;15.60;;;;;;;;;;5091517;28;20024;-66
2021/09/01 02:07:38;;;;;;;24.15;14.82;;;;;;;;;;5091336;28;20032;-67
2021/09/01 02:10:04;;;;;;;24.17;15.75;;;;;;;;;;5073427;28;20031;-66
2021/09/01 02:12:30;;;;;;;26.08;15.70;;;;;;;;;;5073155;28;20403;-65
2021/09/01 02:14:57;;;;;;;23.35;15.15;;;;;;;;;;5091071;28;20024;-65
2021/09/01 02:17:23;;;;;;;25.70;15.10;;;;;;;;;;5091218;28;20021;-65
2021/09/01 02:19:49;;;;;;;23.63;15.38;;;;;;;;;;5091266;28;20027;-65
2021/09/01 02:22:15;;;;;;;25.70;15.68;;;;;;;;;;5091225;28;20458;-65
2021/09/01 02:24:41;;;;;;;22.88;15.05;;;;;;;;;;5072603;28;20031;-65
2021/09/01 02:27:07;;;;;;;24.80;16.20;;;;;;;;;;5072878;28;20456;-65
2021/09/01 02:29:33;;;;;;;24.25;15.48;;;;;;;;;;5091177;28;20048;-66
2021/09/01 02:31:59;;;;;;;26.30;16.05;;;;;;;;;;5072944;28;20028;-66
2021/09/01 02:34:25;;;;;;;24.35;16.42;;;;;;;;;;5090757;28;20032;-66
2021/09/01 02:36:51;;;;;;;20.70;16.23;;;;;;;;;;5090915;28;20035;-65
2021/09/01 02:39:17;;;;;;;21.23;16.02;;;;;;;;;;5092173;28;20387;-65
2021/09/01 02:41:44;;;;;;;24.92;16.33;;;;;;;;;;5095117;28;20024;-66
2021/09/01 02:44:09;;;;;;;22.30;15.68;;;;;;;;;;5095043;28;20048;-66
2021/09/01 02:46:35;;;;;;;24.60;16.08;;;;;;;;;;5095223;28;20369;-65
2021/09/01 02:49:01;;;;;;;22.70;15.77;;;;;;;;;;5076933;28;20024;-65
2021/09/01 02:51:27;;;;;;;25.42;16.25;;;;;;;;;;5095159;28;20395;-65
2021/09/01 02:53:53;;;;;;;25.13;16.17;;;;;;;;;;5076583;28;20020;-66
2021/09/01 02:56:19;;;;;;;26.23;15.75;;;;;;;;;;5076828;28;20432;-66
2021/09/01 02:58:45;;;;;;;22.95;15.10;;;;;;;;;;5076807;28;20118;-66
2021/09/01 03:01:11;;;;;;;21.73;15.55;;;;;;;;;;5094990;28;20028;-66
2021/09/01 03:03:37;;;;;;;21.95;15.25;;;;;;;;;;5094752;28;20095;-65
2021/09/01 03:06:03;;;;;;;21.63;15.77;;;;;;;;;;5076564;28;20399;-66
2021/09/01 03:08:29;;;;;;;20.30;15.60;;;;;;;;;;5076585;28;20024;-66
2021/09/01 03:10:55;;;;;;;21.00;14.90;;;;;;;;;;5094717;28;20463;-66
2021/09/01 03:13:21;;;;;;;21.08;15.07;;;;;;;;;;5076602;28;20028;-65
2021/09/01 03:15:47;;;;;;;22.65;15.88;;;;;;;;;;5076213;28;20024;-66
2021/09/01 03:18:13;;;;;;;20.92;15.13;;;;;;;;;;5094603;28;20024;-65
2021/09/01 03:20:39;;;;;;;21.38;15.30;;;;;;;;;;5076652;28;20024;-66
2021/09/01 03:23:05;;;;;;;19.83;15.07;;;;;;;;;;5076501;28;20027;-66
2021/09/01 03:25:32;;;;;;;31.88;16.45;;;;;;;;;;5094317;28;20028;-66
2021/09/01 03:28:01;;;;;;;23.20;15.60;;;;;;;;;;5094209;28;20428;-66
2021/09/01 03:30:30;;;;;;;21.75;14.15;;;;;;;;;;5076369;28;20115;-65
2021/09/01 03:32:56;;;;;;;20.90;14.60;;;;;;;;;;5094518;28;20215;-66
2021/09/01 03:35:22;;;;;;;22.77;15.55;;;;;;;;;;5094283;28;20028;-65
2021/09/01 03:37:48;;;;;;;24.35;15.93;;;;;;;;;;5076010;28;20023;-66
2021/09/01 03:40:15;;;;;;;22.02;15.75;;;;;;;;;;5094430;28;20095;-66
2021/09/01 03:42:41;;;;;;;23.35;15.43;;;;;;;;;;5094342;28;20084;-66
2021/09/01 03:45:08;;;;;;;23.58;14.80;;;;;;;;;;5094004;28;20121;-65
2021/09/01 03:47:34;;;;;;;22.13;14.30;;;;;;;;;;5094158;28;20093;-66
2021/09/01 03:50:00;;;;;;;21.58;15.40;;;;;;;;;;5094051;28;20024;-66
2021/09/01 03:52:26;;;;;;;24.38;15.68;;;;;;;;;;5075221;28;20115;-66
2021/09/01 03:54:52;;;;;;;26.08;16.45;;;;;;;;;;5075761;28;20122;-65
2021/09/01 03:57:18;;;;;;;22.55;15.15;;;;;;;;;;5094014;28;20085;-65
2021/09/01 03:59:44;;;;;;;21.83;15.35;;;;;;;;;;5094094;28;20032;-64
2021/09/01 04:02:11;;;;;;;22.45;15.52;;;;;;;;;;5094040;28;20020;-65
2021/09/01 04:04:37;;;;;;;25.88;15.77;;;;;;;;;;5093759;28;20024;-66
2021/09/01 04:07:04;;;;;;;23.23;15.32;;;;;;;;;;5093763;28;20032;-66
2021/09/01 04:09:30;;;;;;;27.67;16.55;;;;;;;;;;5093849;28;20028;-65
2021/09/01 04:11:56;;;;;;;25.10;15.98;;;;;;;;;;5093979;28;20025;-66
2021/09/01 04:14:22;;;;;;;25.88;15.90;;;;;;;;;;5093222;28;20027;-66
2021/09/01 04:16:48;;;;;;;21.70;15.70;;;;;;;;;;5093638;28;20016;-65
2021/09/01 04:19:14;;;;;;;24.50;16.20;;;;;;;;;;5093587;28;20020;-66
2021/09/01 04:21:40;;;;;;;20.90;15.38;;;;;;;;;;5075287;28;20024;-65
2021/09/01 04:24:06;;;;;;;26.90;15.93;;;;;;;;;;5093219;28;20474;-65
2021/09/01 04:26:32;;;;;;;24.70;15.35;;;;;;;;;;5075456;28;20030;-65
2021/09/01 04:28:58;;;;;;;22.65;16.25;;;;;;;;;;5093629;28;20399;-65
2021/09/01 04:31:24;;;;;;;23.95;15.70;;;;;;;;;;5075227;28;20028;-65
2021/09/01 04:33:50;;;;;;;29.20;16.48;;;;;;;;;;5075314;28;20489;-65
2021/09/01 04:36:16;;;;;;;22.33;15.60;;;;;;;;;;5074994;28;20024;-66
2021/09/01 04:38:42;;;;;;;28.55;15.98;;;;;;;;;;5093417;28;20016;-65
2021/09/01 04:41:08;;;;;;;24.27;15.77;;;;;;;;;;5093346;28;20028;-65
2021/09/01 04:43:34;;;;;;;25.02;15.95;;;;;;;;;;5093025;28;20093;-65
2021/09/01 04:46:00;;;;;;;25.27;16.27;;;;;;;;;;5093180;28;20020;-64
2021/09/01 04:48:26;;;;;;;23.98;15.55;;;;;;;;;;5074788;28;20077;-64
2021/09/01 04:50:53;;;;;;;21.77;15.82;;;;;;;;;;5093044;28;20594;-65
2021/09/01 04:53:19;;;;;;;26.38;15.88;;;;;;;;;;5093112;28;20028;-65
2021/09/01 04:55:45;;;;;;;25.65;16.00;;;;;;;;;;5074863;28;20031;-65
2021/09/01 04:58:11;;;;;;;25.33;15.65;;;;;;;;;;5116032;22;20072;-62
2021/09/01 05:00:37;;;;;;;25.55;16.02;;;;;;;;;;5055091;28;20031;-62
2021/09/01 05:03:06;;;;;;;26.52;16.75;;;;;;;;;;5054088;28;20028;-62
2021/09/01 05:05:32;;;;;;;25.50;16.45;;;;;;;;;;5072839;28;20020;-63
2021/09/01 05:07:58;;;;;;;27.65;16.98;;;;;;;;;;5080960;28;20107;-64
2021/09/01 05:10:24;;;;;;;22.63;16.20;;;;;;;;;;5093094;28;20060;-64
2021/09/01 05:12:50;;;;;;;22.13;15.73;;;;;;;;;;5075057;28;20435;-63
2021/09/01 05:15:16;;;;;;;25.85;18.60;;;;;;;;;;5087885;28;20067;-64
2021/09/01 05:17:43;;;;;;;23.08;17.67;;;;;;;;;;5092622;28;20074;-63
2021/09/01 05:20:09;;;;;;;27.20;18.35;;;;;;;;;;5074392;28;20028;-63
2021/09/01 05:22:39;;;;;;;24.45;16.95;;;;;;;;;;5084386;28;20472;-61
2021/09/01 05:25:10;;;;;;;29.85;16.95;;;;;;;;;;5072520;28;20056;-63
2021/09/01 05:27:37;;;;;;;24.70;16.33;;;;;;;;;;5072605;28;20024;-62
2021/09/01 05:30:08;;;;;;;24.30;16.40;;;;;;;;;;5037508;28;20561;-63
2021/09/01 05:32:36;;;;;;;24.40;16.80;;;;;;;;;;5092546;28;20032;-62
2021/09/01 05:35:03;;;;;;;25.35;16.10;;;;;;;;;;5074091;28;20066;-64
2021/09/01 05:37:29;;;;;;;24.13;16.10;;;;;;;;;;5092578;28;20051;-62
2021/09/01 05:39:58;;;;;;;26.85;16.73;;;;;;;;;;5074170;28;20028;-63
2021/09/01 05:42:26;;;;;;;26.02;17.65;;;;;;;;;;5092409;28;20042;-63
2021/09/01 05:44:52;;;;;;;29.33;16.15;;;;;;;;;;5073909;28;20024;-61
2021/09/01 05:47:19;;;;;;;22.33;15.82;;;;;;;;;;5091188;28;20032;-64
2021/09/01 05:49:46;;;;;;;24.48;16.02;;;;;;;;;;5053243;28;20511;-62
2021/09/01 05:52:12;;;;;;;24.52;16.88;;;;;;;;;;5072086;28;20117;-61
2021/09/01 05:54:50;;;;;;;22.50;15.38;;;;;;;;;;5071727;28;20113;-63
2021/09/01 05:57:17;;;;;;;25.77;16.60;;;;;;;;;;5071475;28;20033;-62
2021/09/01 05:59:47;;;;;;;24.25;16.25;;;;;;;;;;5071771;28;20055;-63
2021/09/01 06:02:26;;;;;;;28.90;17.65;;;;;;;;;;5071790;28;20024;-62
2021/09/01 06:04:53;;;;;;;25.05;17.45;;;;;;;;;;5053599;28;20024;-62
2021/09/01 06:07:19;;;;;;;26.05;16.73;;;;;;;;;;5071722;28;20033;-63
2021/09/01 06:09:47;;;;;;;25.85;16.65;;;;;;;;;;5071491;28;20109;-61
2021/09/01 06:12:20;;;;;;;24.42;16.40;;;;;;;;;;5071598;28;20432;-61
2021/09/01 06:14:46;;;;;;;26.30;16.98;;;;;;;;;;5074185;28;20020;-63
2021/09/01 06:17:12;;;;;;;25.23;16.15;;;;;;;;;;5091830;28;20077;-63
2021/09/01 06:19:39;;;;;;;26.85;16.52;;;;;;;;;;5091723;28;20368;-62
2021/09/01 06:22:05;;;;;;;27.77;16.67;;;;;;;;;;5091824;28;20111;-60
2021/09/01 06:24:34;;;;;;;25.08;16.63;;;;;;;;;;5091120;28;20108;-63
2021/09/01 06:27:01;;;;;;;24.05;16.65;;;;;;;;;;5091676;28;20035;-62
2021/09/01 06:29:28;;;;;;;25.75;16.35;;;;;;;;;;5073551;28;20028;-63
2021/09/01 06:31:54;;;;;;;34.50;17.70;;;;;;;;;;5091507;28;20121;-63
2021/09/01 06:34:20;;;;;;;23.60;15.98;;;;;;;;;;5091370;28;20537;-62
2021/09/01 06:36:46;;;;;;;26.92;16.80;;;;;;;;;;5091735;28;20024;-63
2021/09/01 06:39:12;;;;;;;26.00;16.67;;;;;;;;;;5091173;28;20031;-63
2021/09/01 06:41:38;;;;;;;24.52;17.27;;;;;;;;;;5091562;28;20501;-63
2021/09/01 06:44:04;;;;;;;28.55;16.40;;;;;;;;;;5091444;28;20103;-64
2021/09/01 06:46:30;;;;;;;30.77;16.50;;;;;;;;;;5091702;28;20064;-61
2021/09/01 06:48:56;;;;;;;24.75;17.23;;;;;;;;;;5069780;28;20020;-63
2021/09/01 06:51:22;;;;;;;27.38;16.40;;;;;;;;;;5071358;28;20056;-60
2021/09/01 06:53:48;;;;;;;26.08;16.70;;;;;;;;;;5053077;28;20027;-62
2021/09/01 06:56:14;;;;;;;26.52;16.70;;;;;;;;;;5053445;28;20029;-62
2021/09/01 06:58:40;;;;;;;22.02;15.40;;;;;;;;;;5071222;28;20035;-63
2021/09/01 07:01:06;;;;;;;29.77;16.85;;;;;;;;;;5071247;28;20492;-63
2021/09/01 07:03:32;;;;;;;29.40;16.50;;;;;;;;;;5071187;28;20092;-65
2021/09/01 07:05:58;;;;;;;23.88;16.80;;;;;;;;;;5071318;28;20514;-66
2021/09/01 07:08:24;;;;;;;26.00;16.67;;;;;;;;;;5053021;28;20102;-63
2021/09/01 07:10:51;;;;;;;29.85;16.00;;;;;;;;;;5053080;28;20036;-60
2021/09/01 07:13:17;;;;;;;28.13;16.00;;;;;;;;;;5070894;28;20100;-64
2021/09/01 07:15:43;;;;;;;26.67;16.80;;;;;;;;;;5057916;28;20390;-63
2021/09/01 07:18:09;;;;;;;25.45;16.73;;;;;;;;;;5091387;28;20047;-64
2021/09/01 07:20:35;;;;;;;27.75;17.80;;;;;;;;;;5073073;28;20021;-65
2021/09/01 07:23:01;;;;;;;23.55;16.33;;;;;;;;;;5091323;28;20024;-65
2021/09/01 07:25:28;;;;;;;24.60;16.25;;;;;;;;;;5091259;28;20028;-65
2021/09/01 07:27:53;;;;;;;24.42;16.23;;;;;;;;;;5093988;28;20024;-64
2021/09/01 07:30:20;;;;;;;25.70;16.38;;;;;;;;;;5075088;28;20028;-65
2021/09/01 07:32:46;;;;;;;24.40;16.67;;;;;;;;;;5093378;28;20020;-64
2021/09/01 07:35:12;;;;;;;27.02;16.90;;;;;;;;;;5093152;28;20085;-65
2021/09/01 07:37:48;;;;;;;24.98;16.88;;;;;;;;;;5093927;28;20493;-65
2021/09/01 07:40:15;;;;;;;26.60;16.45;;;;;;;;;;5093969;28;20028;-62
2021/09/01 07:42:43;;;;;;;27.48;17.67;;;;;;;;;;5093932;28;20398;-62
2021/09/01 07:45:09;;;;;;;25.55;17.48;;;;;;;;;;5093987;28;20024;-64
2021/09/01 07:47:35;;;;;;;25.80;17.92;;;;;;;;;;5094614;28;20097;-61
2021/09/01 07:50:01;;;;;;;25.70;17.25;;;;;;;;;;5076215;28;20060;-62
2021/09/01 07:52:27;;;;;;;23.40;16.45;;;;;;;;;;5094342;28;20077;-63
2021/09/01 07:54:53;;;;;;;25.10;16.70;;;;;;;;;;5093865;28;20062;-61
2021/09/01 07:57:19;;;;;;;28.77;18.77;;;;;;;;;;5094037;28;20024;-64
2021/09/01 07:59:45;;;;;;;28.55;19.58;;;;;;;;;;5094221;28;20069;-65
2021/09/01 08:02:11;;;;;;;30.40;18.38;;;;;;;;;;5076925;28;20028;-64
2021/09/01 08:04:37;;;;;;;26.00;19.33;;;;;;;;;;5094200;28;20102;-63
2021/09/01 08:07:03;;;;;;;27.25;19.15;;;;;;;;;;5075883;28;20031;-65
2021/09/01 08:09:29;;;;;;;29.52;19.63;;;;;;;;;;5094067;28;20074;-62
2021/09/01 08:11:55;;;;;;;28.38;20.02;;;;;;;;;;5093930;28;20047;-64
2021/09/01 08:14:21;;;;;;;27.90;19.65;;;;;;;;;;5093658;28;20024;-64
2021/09/01 08:16:47;;;;;;;29.15;18.73;;;;;;;;;;5093818;28;20103;-63
2021/09/01 08:19:13;;;;;;;26.27;18.92;;;;;;;;;;5074940;28;20039;-65
2021/09/01 08:21:39;;;;;;;29.73;19.02;;;;;;;;;;5093807;28;20471;-65
2021/09/01 08:24:05;;;;;;;23.42;17.55;;;;;;;;;;5093737;28;20032;-64
2021/09/01 08:26:31;;;;;;;31.10;19.45;;;;;;;;;;5093978;28;20024;-63
2021/09/01 08:28:57;;;;;;;23.95;17.80;;;;;;;;;;5093741;28;20099;-60
2021/09/01 08:31:23;;;;;;;25.00;19.83;;;;;;;;;;5094064;28;20521;-61
2021/09/01 08:33:49;;;;;;;27.67;19.23;;;;;;;;;;5093423;28;20020;-62
2021/09/01 08:36:15;;;;;;;25.10;19.67;;;;;;;;;;5093478;28;20024;-62
2021/09/01 08:38:41;;;;;;;28.80;20.13;;;;;;;;;;5092875;28;20039;-62
2021/09/01 08:41:07;;;;;;;29.25;18.42;;;;;;;;;;5093487;28;20099;-61
2021/09/01 08:43:34;;;;;;;26.77;17.42;;;;;;;;;;5093273;28;20040;-61
2021/09/01 08:46:02;;;;;;;25.85;17.45;;;;;;;;;;5093600;28;20057;-64
2021/09/01 08:48:28;;;;;;;23.58;17.02;;;;;;;;;;5093493;28;20027;-64
2021/09/01 08:50:54;;;;;;;24.88;16.80;;;;;;;;;;5093460;28;20047;-65
2021/09/01 08:53:20;;;;;;;24.60;17.00;;;;;;;;;;5093377;28;20031;-64
2021/09/01 08:55:49;;;;;;;27.63;17.08;;;;;;;;;;5074932;28;20423;-63
2021/09/01 08:58:15;;;;;;;24.23;17.88;;;;;;;;;;5093093;28;20036;-65
2021/09/01 09:00:41;;;;;;;29.15;17.60;;;;;;;;;;5093310;28;20020;-62
2021/09/01 09:03:09;;;;;;;23.45;16.17;;;;;;;;;;5093289;28;20042;-62
2021/09/01 09:05:36;;;;;;;26.00;16.30;;;;;;;;;;5092846;28;20020;-62
2021/09/01 09:08:04;;;;;;;23.20;16.55;;;;;;;;;;5093329;28;20024;-62
2021/09/01 09:10:34;;;;;;;25.07;17.80;;;;;;;;;;5092970;28;20374;-62
2021/09/01 09:13:01;;;;;;;25.63;17.73;;;;;;;;;;5092883;28;20319;-63
2021/09/01 09:15:27;;;;;;;23.40;16.50;;;;;;;;;;5092423;28;20383;-63
2021/09/01 09:17:53;;;;;;;24.02;17.25;;;;;;;;;;5092943;28;20028;-65
2021/09/01 09:20:30;;;;;;;23.65;16.90;;;;;;;;;;5092747;28;20095;-64
2021/09/01 09:22:57;;;;;;;25.15;16.20;;;;;;;;;;5093087;28;20016;-65
2021/09/01 09:25:30;;;;;;;20.80;16.50;;;;;;;;;;5092781;28;20085;-64
2021/09/01 09:28:04;;;;;;;27.30;16.63;;;;;;;;;;5092702;28;20031;-62
2021/09/01 09:30:30;;;;;;;21.08;16.52;;;;;;;;;;5094330;28;20538;-64
2021/09/01 09:33:15;;;;;;;22.88;17.15;;;;;;;;;;5074593;28;20052;-64
2021/09/01 09:36:02;;;;;;;21.02;16.02;;;;;;;;;;5074169;28;20028;-61
2021/09/01 09:38:28;;;;;;;22.45;16.95;;;;;;;;;;5091997;28;20024;-61
2021/09/01 09:40:54;;;;;;;21.90;16.25;;;;;;;;;;5092970;28;20412;-63
2021/09/01 09:43:22;;;;;;;24.17;17.15;;;;;;;;;;5092645;28;20081;-64
2021/09/01 09:45:48;;;;;;;24.15;17.10;;;;;;;;;;5092505;28;20024;-63
2021/09/01 09:48:15;;;;;;;27.40;17.45;;;;;;;;;;5074498;28;20032;-63
2021/09/01 09:50:50;;;;;;;26.42;16.55;;;;;;;;;;5092102;28;20093;-64
2021/09/01 09:53:31;;;;;;;27.05;17.60;;;;;;;;;;5074325;28;20038;-62
2021/09/01 09:56:04;;;;;;;25.50;17.50;;;;;;;;;;5092434;28;20058;-62
2021/09/01 09:58:32;;;;;;;23.17;17.13;;;;;;;;;;5074038;28;20465;-64
2021/09/01 10:00:58;;;;;;;23.60;17.38;;;;;;;;;;5092393;28;20020;-61
2021/09/01 10:03:24;;;;;;;27.70;16.95;;;;;;;;;;5092206;28;20054;-63
2021/09/01 10:05:50;;;;;;;21.67;16.70;;;;;;;;;;5092426;28;20024;-63
2021/09/01 10:08:16;;;;;;;22.27;16.60;;;;;;;;;;5092516;28;20395;-63
2021/09/01 10:10:43;;;;;;;25.55;16.65;;;;;;;;;;5074206;28;20024;-63
2021/09/01 10:13:11;;;;;;;22.40;17.38;;;;;;;;;;5074091;28;20024;-64
2021/09/01 10:15:39;;;;;;;27.45;19.23;;;;;;;;;;5073594;28;20020;-63
2021/09/01 10:18:06;;;;;;;;;;;;;;;;;;5091956;28;20023;-63
2021/09/01 10:20:32;;;;;;;23.90;17.73;;;;;;;;;;5091999;28;19904;-63
2021/09/01 10:22:59;;;;;;;24.05;18.20;;;;;;;;;;5091779;28;20423;-63
2021/09/01 10:25:33;;;;;;;24.10;18.92;;;;;;;;;;5091859;28;20020;-64
2021/09/01 10:28:17;;;;;;;24.55;18.40;;;;;;;;;;5092383;28;20039;-63
2021/09/01 10:31:19;;;;;;;25.33;18.58;;;;;;;;;;5091836;28;20028;-63
2021/09/01 10:33:46;;;;;;;24.38;18.40;;;;;;;;;;5029154;28;20034;-63
2021/09/01 10:36:24;;;;;;;27.20;17.30;;;;;;;;;;5079617;28;20090;-62
2021/09/01 10:38:50;;;;;;;24.45;18.02;;;;;;;;;;5073880;28;20035;-63
2021/09/01 10:41:28;;;;;;;25.98;19.02;;;;;;;;;;5091867;28;20482;-63
2021/09/01 10:44:06;;;;;;;22.20;17.38;;;;;;;;;;5091533;28;20020;-61
2021/09/01 10:46:51;;;;;;;23.52;17.30;;;;;;;;;;5091877;28;20106;-63
2021/09/01 10:49:21;;;;;;;33.90;18.70;;;;;;;;;;5091309;28;20498;-62
2021/09/01 10:51:48;;;;;;;23.65;16.85;;;;;;;;;;5091385;28;20107;-63
2021/09/01 10:54:27;;;;;;;21.60;17.05;;;;;;;;;;5072865;28;20028;-63
2021/09/01 10:56:53;;;;;;;23.52;17.50;;;;;;;;;;5091993;28;20095;-62
2021/09/01 10:59:26;;;;;;;24.30;18.17;;;;;;;;;;5071924;22;20076;-64
2021/09/01 11:02:11;;;;;;;23.23;17.35;;;;;;;;;;5014548;28;20021;-62
2021/09/01 11:04:45;;;;;;;23.70;17.70;;;;;;;;;;5016740;28;20025;-65
2021/09/01 11:07:11;;;;;;;29.35;18.48;;;;;;;;;;5016510;28;20068;-64
2021/09/01 11:09:37;;;;;;;22.83;18.17;;;;;;;;;;5015888;28;20033;-65
2021/09/01 11:12:04;;;;;;;26.13;18.08;;;;;;;;;;5016046;28;20028;-62
2021/09/01 11:14:32;;;;;;;21.17;17.63;;;;;;;;;;5015768;28;20056;-65
2021/09/01 11:16:58;;;;;;;22.92;17.60;;;;;;;;;;5033714;28;20101;-63
2021/09/01 11:19:24;;;;;;;24.52;18.05;;;;;;;;;;5034228;28;20370;-65
2021/09/01 11:21:50;;;;;;;22.40;17.70;;;;;;;;;;5033826;28;20550;-65
2021/09/01 11:24:18;;;;;;;24.90;18.63;;;;;;;;;;5033475;28;20132;-64
2021/09/01 11:26:45;;;;;;;25.75;18.05;;;;;;;;;;5015718;28;20036;-65
2021/09/01 11:29:12;;;;;;;22.50;17.98;;;;;;;;;;5033966;28;20083;-64
2021/09/01 11:31:45;;;;;;;24.02;18.50;;;;;;;;;;5033961;28;20482;-66
2021/09/01 11:34:12;;;;;;;23.73;17.70;;;;;;;;;;5033043;28;20137;-63
2021/09/01 11:36:39;;;;;;;25.48;18.70;;;;;;;;;;5031930;28;20392;-66
2021/09/01 11:39:05;;;;;;;25.65;18.73;;;;;;;;;;5033690;28;20021;-65
2021/09/01 11:41:31;;;;;;;25.13;18.65;;;;;;;;;;5015662;28;20075;-63
2021/09/01 11:44:01;;;;;;;25.35;18.08;;;;;;;;;;5015997;28;20048;-63
2021/09/01 11:46:31;;;;;;;24.35;18.65;;;;;;;;;;5015966;28;20036;-62
2021/09/01 11:49:02;;;;;;;22.67;17.95;;;;;;;;;;5033413;28;20033;-64
2021/09/01 11:51:30;;;;;;;25.17;17.67;;;;;;;;;;5033842;28;20084;-63
2021/09/01 11:53:57;;;;;;;28.42;17.27;;;;;;;;;;5033897;28;20029;-65
2021/09/01 11:56:24;;;;;;;24.23;18.23;;;;;;;;;;5015995;28;20075;-64
2021/09/01 11:59:04;;;;;;;24.45;17.83;;;;;;;;;;5033396;28;20128;-64
2021/09/01 12:01:30;;;;;;;23.70;17.45;;;;;;;;;;5033128;28;20481;-65
2021/09/01 12:03:56;;;;;;;22.42;17.83;;;;;;;;;;5033370;28;20025;-63
2021/09/01 12:06:33;;;;;;;23.42;17.63;;;;;;;;;;5015670;28;20025;-63
2021/09/01 12:08:59;;;;;;;22.58;17.23;;;;;;;;;;5033169;28;20025;-62
2021/09/01 12:11:25;;;;;;;24.20;18.30;;;;;;;;;;5014783;28;20021;-63
2021/09/01 12:13:51;;;;;;;23.35;17.48;;;;;;;;;;5013428;28;20024;-64
2021/09/01 12:16:25;;;;;;;26.13;17.65;;;;;;;;;;5032170;28;20457;-64
2021/09/01 12:18:55;;;;;;;22.90;17.42;;;;;;;;;;5033000;28;20481;-63
2021/09/01 12:21:22;;;;;;;30.90;18.17;;;;;;;;;;5032179;28;20416;-66
2021/09/01 12:24:08;;;;;;;25.50;17.65;;;;;;;;;;5031672;28;20495;-65
2021/09/01 12:26:44;;;;;;;21.75;18.25;;;;;;;;;;5031482;28;20036;-65
2021/09/01 12:29:22;;;;;;;26.42;17.38;;;;;;;;;;5031207;28;20026;-66
2021/09/01 12:31:51;;;;;;;24.65;18.85;;;;;;;;;;5031441;28;20040;-66
2021/09/01 12:34:17;;;;;;;22.92;17.67;;;;;;;;;;5030484;28;20065;-64
2021/09/01 12:36:43;;;;;;;21.58;17.88;;;;;;;;;;5030861;28;20052;-64
2021/09/01 12:39:15;;;;;;;21.25;17.23;;;;;;;;;;5031852;28;20043;-66
2021/09/01 12:41:43;;;;;;;30.30;18.05;;;;;;;;;;5015167;28;20071;-64
2021/09/01 12:44:10;;;;;;;23.15;18.50;;;;;;;;;;5032453;28;20028;-64
2021/09/01 12:46:36;;;;;;;23.38;18.40;;;;;;;;;;5032752;28;20051;-65
2021/09/01 12:49:21;;;;;;;29.88;19.25;;;;;;;;;;5015043;28;20120;-65
2021/09/01 12:51:47;;;;;;;25.75;19.45;;;;;;;;;;5032745;28;20025;-66
2021/09/01 12:54:13;;;;;;;23.63;18.95;;;;;;;;;;5032125;28;20032;-66
2021/09/01 12:56:41;;;;;;;22.75;18.67;;;;;;;;;;5013964;28;20025;-64
2021/09/01 12:59:06;;;;;;;21.77;19.00;;;;;;;;;;5032225;28;20029;-64
2021/09/01 13:01:32;;;;;;;27.83;19.05;;;;;;;;;;5014689;28;20472;-65
2021/09/01 13:03:58;;;;;;;24.35;19.17;;;;;;;;;;4682572;28;10000068;-63
2021/09/01 13:06:24;;;;;;;25.90;18.95;;;;;;;;;;5011926;28;20120;-63
2021/09/01 13:08:50;;;;;;;22.48;19.60;;;;;;;;;;5029088;28;20022;-62
2021/09/01 13:11:16;;;;;;;25.17;18.98;;;;;;;;;;5029924;28;20029;-66
2021/09/01 13:13:42;;;;;;;26.27;19.80;;;;;;;;;;5030068;28;20029;-65
2021/09/01 13:16:08;;;;;;;24.15;19.10;;;;;;;;;;5029874;28;20448;-63
2021/09/01 13:18:34;;;;;;;23.27;19.00;;;;;;;;;;5006606;28;20053;-65
2021/09/01 13:21:00;;;;;;;24.85;19.35;;;;;;;;;;5020425;28;20029;-66
2021/09/01 13:23:26;;;;;;;27.42;19.15;;;;;;;;;;5020453;28;20534;-63
2021/09/01 13:25:52;;;;;;;23.08;18.58;;;;;;;;;;5001142;28;20060;-64
2021/09/01 13:28:18;;;;;;;24.27;18.67;;;;;;;;;;5002768;28;20641;-65
2021/09/01 13:30:45;;;;;;;21.27;18.45;;;;;;;;;;5019591;28;20024;-64
2021/09/01 13:33:11;;;;;;;25.42;18.58;;;;;;;;;;5018825;28;20064;-62
2021/09/01 13:35:37;;;;;;;23.95;18.42;;;;;;;;;;5013327;28;20756;-62
2021/09/01 13:38:03;;;;;;;22.80;18.75;;;;;;;;;;5019422;28;20045;-63
2021/09/01 13:40:29;;;;;;;26.83;18.98;;;;;;;;;;5017894;28;20489;-63
2021/09/01 13:42:55;;;;;;;26.55;19.05;;;;;;;;;;5017567;28;20492;-63
2021/09/01 13:45:21;;;;;;;23.55;19.08;;;;;;;;;;5019064;28;20083;-62
2021/09/01 13:47:47;;;;;;;21.08;18.35;;;;;;;;;;4999107;28;20033;-62
2021/09/01 13:50:13;;;;;;;25.00;19.20;;;;;;;;;;5016963;28;20033;-64
2021/09/01 13:52:39;;;;;;;21.77;18.30;;;;;;;;;;5000809;28;20382;-62
2021/09/01 13:55:06;;;;;;;24.08;18.83;;;;;;;;;;4997709;28;20060;-62
2021/09/01 13:57:32;;;;;;;22.08;18.77;;;;;;;;;;5021182;28;20029;-60
2021/09/01 14:00:00;;;;;;;22.92;18.77;;;;;;;;;;5021489;28;20045;-62
2021/09/01 14:02:26;;;;;;;;;;;;;;;;;;4671519;28;9999995;-64
2021/09/01 14:04:52;;;;;;;22.88;19.00;;;;;;;;;;5017026;28;20024;-63
2021/09/01 14:07:18;;;;;;;20.70;18.40;;;;;;;;;;4999998;28;20029;-62
2021/09/01 14:09:44;;;;;;;24.25;18.30;;;;;;;;;;5016010;28;20021;-62
2021/09/01 14:12:12;;;;;;;21.02;18.23;;;;;;;;;;4999818;28;20025;-59
2021/09/01 14:14:38;;;;;;;23.33;18.83;;;;;;;;;;5016831;28;20051;-64
2021/09/01 14:17:04;;;;;;;23.17;18.42;;;;;;;;;;5021704;28;20018;-62
2021/09/01 14:19:31;;;;;;;22.33;17.88;;;;;;;;;;5018279;28;20091;-64
2021/09/01 14:21:57;;;;;;;20.90;18.00;;;;;;;;;;5015852;28;20060;-64